createdAt,value
2019-05-02T00:03:42.953Z,89.91
2019-05-02T00:08:46.355Z,90.69
2019-05-02T00:13:49.822Z,91.12
2019-05-02T00:18:52.999Z,91.56
2019-05-02T00:23:59.136Z,91.94
2019-05-02T00:29:01.269Z,92.77
2019-05-02T00:34:04.747Z,92.87
2019-05-02T00:39:09.477Z,93.11
2019-05-02T00:44:13.176Z,92.93
2019-05-02T00:49:16.673Z,92.74
2019-05-02T00:54:24.194Z,92.80
2019-05-02T00:59:24.847Z,92.89
2019-05-02T01:04:33.399Z,92.82
2019-05-02T01:09:36.444Z,92.97
2019-05-02T01:14:39.555Z,93.03
2019-05-02T01:19:42.604Z,93.14
2019-05-02T01:24:45.678Z,93.18
2019-05-02T01:30:08.353Z,93.25
2019-05-02T01:35:20.686Z,93.12
2019-05-02T01:40:23.624Z,92.68
2019-05-02T01:45:26.753Z,92.25
2019-05-02T01:50:33.517Z,91.81
2019-05-02T01:55:34.652Z,91.38
2019-05-02T02:00:40.959Z,91.57
2019-05-02T02:05:43.247Z,91.25
2019-05-02T02:10:50.631Z,90.90
2019-05-02T02:15:51.522Z,90.45
2019-05-02T02:21:13.967Z,89.98
2019-05-02T02:26:17.879Z,90.34
2019-05-02T02:31:21.438Z,89.77
2019-05-02T02:36:31.758Z,90.05
2019-05-02T02:41:29.460Z,89.55
2019-05-02T02:46:37.727Z,89.18
2019-05-02T02:51:38.439Z,89.16
2019-05-02T02:56:42.675Z,88.73
2019-05-02T03:01:46.070Z,88.42
2019-05-02T03:06:49.057Z,88.38
2019-05-02T03:12:10.355Z,88.39
2019-05-02T03:17:13.324Z,88.19
2019-05-02T03:22:16.681Z,88.11
2019-05-02T03:27:20.131Z,88.13
2019-05-02T03:32:33.746Z,87.10
2019-05-02T03:37:29.090Z,86.51
2019-05-02T03:42:43.644Z,86.12
2019-05-02T03:47:43.473Z,85.47
2019-05-02T03:52:44.016Z,85.33
2019-05-02T03:57:47.383Z,85.42
2019-05-02T04:02:59.162Z,85.46
2019-05-02T04:07:55.968Z,84.82
2019-05-02T04:12:59.954Z,84.47
2019-05-02T04:18:08.560Z,84.44
2019-05-02T04:23:08.239Z,83.14
2019-05-02T04:28:14.352Z,82.82
2019-05-02T04:33:17.113Z,81.65
2019-05-02T04:38:30.961Z,80.98
2019-05-02T04:43:28.598Z,79.96
2019-05-02T04:48:34.757Z,78.13
2019-05-02T04:53:42.324Z,77.07
2019-05-02T04:58:40.961Z,76.90
2019-05-02T05:03:49.165Z,75.98
2019-05-02T05:08:49.099Z,76.74
2019-05-02T05:13:52.549Z,76.61
2019-05-02T05:18:57.820Z,76.13
2019-05-02T05:24:21.436Z,76.21
2019-05-02T05:29:24.507Z,75.38
2019-05-02T05:34:32.286Z,74.33
2019-05-02T05:39:32.388Z,73.34
2019-05-02T05:44:35.394Z,71.28
2019-05-02T05:49:38.447Z,70.19
2019-05-02T05:54:42.108Z,68.77
2019-05-02T05:59:45.301Z,67.90
2019-05-02T06:04:50.266Z,68.18
2019-05-02T06:09:53.183Z,67.45
2019-05-02T06:15:01.314Z,67.97
2019-05-02T06:20:01.096Z,67.83
2019-05-02T06:25:09.807Z,67.61
2019-05-02T06:30:13.973Z,67.30
2019-05-02T06:35:21.222Z,67.53
2019-05-02T06:40:22.034Z,65.94
2019-05-02T06:45:25.321Z,66.64
2019-05-02T06:50:28.545Z,66.53
2019-05-02T06:55:36.238Z,65.26
2019-05-02T07:00:51.691Z,65.72
2019-05-02T07:05:41.501Z,65.46
2019-05-02T07:10:45.296Z,65.28
2019-05-02T07:16:16.239Z,64.57
2019-05-02T07:21:22.919Z,63.93
2019-05-02T07:26:23.283Z,63.55
2019-05-02T07:31:26.649Z,64.09
2019-05-02T07:36:31.185Z,63.87
2019-05-02T07:41:37.228Z,64.05
2019-05-02T07:46:51.204Z,61.78
2019-05-02T07:51:45.114Z,61.08
2019-05-02T07:56:48.618Z,59.79
2019-05-02T08:01:51.968Z,59.33
2019-05-02T08:06:55.005Z,58.57
2019-05-02T08:11:58.289Z,59.27
2019-05-02T08:17:05.801Z,59.50
2019-05-02T08:22:13.169Z,59.19
2019-05-02T08:27:39.836Z,58.48
2019-05-02T08:32:58.300Z,56.30
2019-05-02T08:38:01.857Z,55.92
2019-05-02T08:43:09.010Z,53.68
2019-05-02T08:48:09.874Z,52.96
2019-05-02T08:53:14.341Z,53.16
2019-05-02T08:58:18.275Z,51.65
2019-05-02T09:03:21.283Z,49.74
2019-05-02T09:08:24.403Z,48.77
2019-05-02T09:13:29.512Z,48.08
2019-05-02T09:18:38.277Z,49.85
2019-05-02T09:23:37.311Z,47.37
2019-05-02T09:28:42.069Z,47.71
2019-05-02T09:33:46.855Z,44.82
2019-05-02T09:38:53.969Z,44.06
2019-05-02T09:43:55.071Z,44.99
2019-05-02T09:49:02.477Z,46.60
2019-05-02T09:54:06.382Z,45.18
2019-05-02T09:59:26.200Z,47.75
2019-05-02T10:04:17.588Z,47.99
2019-05-02T10:09:23.981Z,45.29
2019-05-02T10:14:25.698Z,46.94
2019-05-02T10:19:28.983Z,47.33
2019-05-02T10:24:32.331Z,46.90
2019-05-02T10:29:35.509Z,48.48
2019-05-02T10:34:39.025Z,47.43
2019-05-02T10:39:42.343Z,47.82
2019-05-02T10:44:45.545Z,47.07
2019-05-02T10:49:56.649Z,47.43
2019-05-02T10:55:02.511Z,48.95
2019-05-02T11:00:07.846Z,45.38
2019-05-02T11:05:16.823Z,45.65
2019-05-02T11:10:21.691Z,44.93
2019-05-02T11:15:44.338Z,46.23
2019-05-02T11:20:47.451Z,45.36
2019-05-02T11:25:52.666Z,44.58
2019-05-02T11:30:57.049Z,45.21
2019-05-02T11:36:02.517Z,45.29
2019-05-02T11:41:05.600Z,47.36
2019-05-02T11:46:08.643Z,48.93
2019-05-02T11:51:16.239Z,47.12
2019-05-02T11:56:16.944Z,45.16
2019-05-02T12:01:34.281Z,45.41
2019-05-02T12:06:24.906Z,47.02
2019-05-02T12:11:27.996Z,45.57
2019-05-02T12:16:32.272Z,46.59
2019-05-02T12:21:39.049Z,43.03
2019-05-02T12:26:41.924Z,41.03
2019-05-02T12:31:47.218Z,40.25
2019-05-02T12:36:51.786Z,41.06
2019-05-02T12:41:55.658Z,41.52
2019-05-02T12:46:58.993Z,40.85
2019-05-02T12:52:02.196Z,39.55
2019-05-02T12:57:05.204Z,39.95
2019-05-02T13:02:12.960Z,41.36
2019-05-02T13:07:15.965Z,42.15
2019-05-02T13:12:24.628Z,41.25
2019-05-02T13:17:29.381Z,38.58
2019-05-02T13:23:10.191Z,37.35
2019-05-02T13:28:17.176Z,37.98
2019-05-02T13:33:32.455Z,38.30
2019-05-02T13:38:34.450Z,38.46
2019-05-02T13:43:44.595Z,37.09
2019-05-02T13:48:47.663Z,37.14
2019-05-02T13:54:01.971Z,37.26
2019-05-02T13:59:04.476Z,36.12
2019-05-02T14:04:10.185Z,37.55
2019-05-02T14:09:39.308Z,37.23
2019-05-02T14:14:42.472Z,37.16
2019-05-02T14:19:45.651Z,36.26
2019-05-02T14:24:48.812Z,36.51
2019-05-02T14:29:52.546Z,36.76
2019-05-02T14:35:18.543Z,38.36
2019-05-02T14:40:26.470Z,37.15
2019-05-02T14:45:31.461Z,36.45
2019-05-02T14:50:36.594Z,36.07
2019-05-02T14:55:42.097Z,36.30
2019-05-02T15:00:48.082Z,37.23
2019-05-02T15:05:52.739Z,35.83
2019-05-02T15:10:56.709Z,37.10
2019-05-02T15:16:02.330Z,36.67
2019-05-02T15:21:12.162Z,36.92
2019-05-02T15:26:12.266Z,35.58
2019-05-02T15:31:24.310Z,37.15
2019-05-02T15:36:26.218Z,37.62
2019-05-02T15:41:29.472Z,37.02
2019-05-02T15:46:32.567Z,35.68
2019-05-02T15:51:38.010Z,35.55
2019-05-02T15:57:00.574Z,36.45
2019-05-02T16:01:58.573Z,36.00
2019-05-02T16:07:07.113Z,36.13
2019-05-02T16:12:06.632Z,36.27
2019-05-02T16:17:09.686Z,36.74
2019-05-02T16:22:16.792Z,36.40
2019-05-02T16:27:25.840Z,36.27
2019-05-02T16:32:52.107Z,36.86
2019-05-02T16:37:56.101Z,36.79
2019-05-02T16:42:59.311Z,39.68
2019-05-02T16:48:03.280Z,38.11
2019-05-02T16:53:06.846Z,38.26
2019-05-02T16:58:11.720Z,38.46
2019-05-02T17:03:17.292Z,38.48
2019-05-02T17:08:32.729Z,39.78
2019-05-02T17:13:35.904Z,39.41
2019-05-02T17:18:39.282Z,39.58
2019-05-02T17:23:46.444Z,39.07
2019-05-02T17:28:47.411Z,39.59
2019-05-02T17:33:52.431Z,40.18
2019-05-02T17:38:59.362Z,39.14
2019-05-02T17:44:00.490Z,40.63
2019-05-02T17:49:03.854Z,40.98
2019-05-02T17:54:08.053Z,41.40
2019-05-02T17:59:11.824Z,43.10
2019-05-02T18:04:16.499Z,46.26
2019-05-02T18:09:21.573Z,45.48
2019-05-02T18:14:24.985Z,46.06
2019-05-02T18:19:28.436Z,46.26
2019-05-02T18:24:32.762Z,47.23
2019-05-02T18:29:41.103Z,52.42
2019-05-02T18:34:41.793Z,55.59
2019-05-02T18:39:49.978Z,54.92
2019-05-02T18:44:53.022Z,57.00
2019-05-02T18:50:00.905Z,58.86
2019-05-02T18:55:01.621Z,59.20
2019-05-02T19:00:05.779Z,66.99
2019-05-02T19:05:13.442Z,61.20
2019-05-02T19:10:15.650Z,62.66
2019-05-02T19:15:19.179Z,62.77
2019-05-02T19:21:05.765Z,67.62
2019-05-02T19:26:12.389Z,61.48
2019-05-02T19:31:14.621Z,62.85
2019-05-02T19:36:24.466Z,64.09
2019-05-02T19:41:22.739Z,64.61
2019-05-02T19:46:34.718Z,67.04
2019-05-02T19:51:31.742Z,67.09
2019-05-02T19:56:45.353Z,65.75
2019-05-02T20:01:40.126Z,68.50
2019-05-02T20:06:43.182Z,71.65
2019-05-02T20:11:46.402Z,70.08
2019-05-02T20:16:53.059Z,70.99
2019-05-02T20:22:12.034Z,70.50
2019-05-02T20:27:15.201Z,67.73
2019-05-02T20:32:18.314Z,66.91
2019-05-02T20:37:22.090Z,70.75
2019-05-02T20:42:27.078Z,66.54
2019-05-02T20:47:30.225Z,62.78
2019-05-02T20:52:33.334Z,64.80
2019-05-02T20:57:36.318Z,60.35
2019-05-02T21:02:39.345Z,60.00
2019-05-02T21:07:52.628Z,59.01
2019-05-02T21:12:57.805Z,58.46
2019-05-02T21:18:02.316Z,58.76
2019-05-02T21:23:05.674Z,61.85
2019-05-02T21:28:09.543Z,64.38
2019-05-02T21:33:34.924Z,66.69
2019-05-02T21:38:38.095Z,68.22
2019-05-02T21:43:42.455Z,68.10
2019-05-02T21:48:46.030Z,70.27
2019-05-02T21:54:08.646Z,71.87
2019-05-02T21:59:12.307Z,70.76
2019-05-02T22:04:15.916Z,70.61
2019-05-02T22:09:19.375Z,74.27
2019-05-02T22:14:22.598Z,73.31
2019-05-02T22:19:25.653Z,73.55
2019-05-02T22:24:28.812Z,73.91
2019-05-02T22:29:32.400Z,73.72
2019-05-02T22:34:35.810Z,75.31
2019-05-02T22:39:56.218Z,74.31
2019-05-02T22:44:59.223Z,72.92
2019-05-02T22:50:02.482Z,76.89
2019-05-02T22:55:06.311Z,76.39
2019-05-02T23:00:10.920Z,74.47
2019-05-02T23:05:14.927Z,73.31
2019-05-02T23:10:18.345Z,73.87
2019-05-02T23:15:21.703Z,74.22
2019-05-02T23:20:24.780Z,75.04
2019-05-02T23:25:52.975Z,76.59
2019-05-02T23:30:56.170Z,75.02
2019-05-02T23:35:59.225Z,76.30
2019-05-02T23:41:02.294Z,77.92
2019-05-02T23:46:05.474Z,76.48
2019-05-02T23:51:08.628Z,75.87
2019-05-02T23:56:13.139Z,75.98
